sensor_id;sensor_type;location;lat;lon;timestamp;temperature;humidity
12386;DHT22;6257;57.634;18.310;2022-07-19T00:00:32;17.40;99.90
12386;DHT22;6257;57.634;18.310;2022-07-19T00:02:59;17.40;99.90
12386;DHT22;6257;57.634;18.310;2022-07-19T00:05:27;17.40;99.90
12386;DHT22;6257;57.634;18.310;2022-07-19T00:07:54;17.40;99.90
12386;DHT22;6257;57.634;18.310;2022-07-19T00:10:21;17.40;99.90
12386;DHT22;6257;57.634;18.310;2022-07-19T00:12:48;17.50;99.90
12386;DHT22;6257;57.634;18.310;2022-07-19T00:15:17;17.50;99.90
12386;DHT22;6257;57.634;18.310;2022-07-19T00:17:46;17.50;99.90
12386;DHT22;6257;57.634;18.310;2022-07-19T00:20:16;17.50;99.90
12386;DHT22;6257;57.634;18.310;2022-07-19T00:22:44;17.40;99.90
12386;DHT22;6257;57.634;18.310;2022-07-19T00:25:12;17.40;99.90
12386;DHT22;6257;57.634;18.310;2022-07-19T00:27:39;17.40;99.90
12386;DHT22;6257;57.634;18.310;2022-07-19T00:30:08;17.40;99.90
12386;DHT22;6257;57.634;18.310;2022-07-19T00:32:37;17.40;99.90
12386;DHT22;6257;57.634;18.310;2022-07-19T00:35:06;17.30;99.90
12386;DHT22;6257;57.634;18.310;2022-07-19T00:37:33;17.30;99.90
12386;DHT22;6257;57.634;18.310;2022-07-19T00:40:00;17.20;99.90
12386;DHT22;6257;57.634;18.310;2022-07-19T00:42:27;17.20;99.90
12386;DHT22;6257;57.634;18.310;2022-07-19T00:44:54;17.20;99.90
12386;DHT22;6257;57.634;18.310;2022-07-19T00:47:21;17.20;99.90
12386;DHT22;6257;57.634;18.310;2022-07-19T00:49:50;17.20;99.90
12386;DHT22;6257;57.634;18.310;2022-07-19T00:52:19;17.20;99.90
12386;DHT22;6257;57.634;18.310;2022-07-19T00:54:47;17.20;99.90
12386;DHT22;6257;57.634;18.310;2022-07-19T00:57:15;17.20;99.90
12386;DHT22;6257;57.634;18.310;2022-07-19T00:59:43;17.20;99.90
12386;DHT22;6257;57.634;18.310;2022-07-19T01:02:13;17.20;99.90
12386;DHT22;6257;57.634;18.310;2022-07-19T01:04:40;17.10;99.90
12386;DHT22;6257;57.634;18.310;2022-07-19T01:07:09;17.10;99.90
12386;DHT22;6257;57.634;18.310;2022-07-19T01:09:37;17.00;99.90
12386;DHT22;6257;57.634;18.310;2022-07-19T01:12:06;17.00;99.90
12386;DHT22;6257;57.634;18.310;2022-07-19T01:14:33;17.00;99.90
12386;DHT22;6257;57.634;18.310;2022-07-19T01:17:02;16.90;99.90
12386;DHT22;6257;57.634;18.310;2022-07-19T01:19:29;16.90;99.90
12386;DHT22;6257;57.634;18.310;2022-07-19T01:21:59;16.90;99.90
12386;DHT22;6257;57.634;18.310;2022-07-19T01:24:26;16.80;99.90
12386;DHT22;6257;57.634;18.310;2022-07-19T01:26:53;16.80;99.90
12386;DHT22;6257;57.634;18.310;2022-07-19T01:29:21;16.80;99.90
12386;DHT22;6257;57.634;18.310;2022-07-19T01:31:48;16.80;99.90
12386;DHT22;6257;57.634;18.310;2022-07-19T01:34:15;16.80;99.90
12386;DHT22;6257;57.634;18.310;2022-07-19T01:36:42;16.80;99.90
12386;DHT22;6257;57.634;18.310;2022-07-19T01:39:11;16.90;99.90
12386;DHT22;6257;57.634;18.310;2022-07-19T01:41:38;16.90;99.90
12386;DHT22;6257;57.634;18.310;2022-07-19T01:44:05;17.00;99.90
12386;DHT22;6257;57.634;18.310;2022-07-19T01:46:32;17.00;99.90
12386;DHT22;6257;57.634;18.310;2022-07-19T01:48:59;17.00;99.90
12386;DHT22;6257;57.634;18.310;2022-07-19T01:51:26;17.00;99.90
12386;DHT22;6257;57.634;18.310;2022-07-19T01:53:53;17.10;99.90
12386;DHT22;6257;57.634;18.310;2022-07-19T01:56:22;17.10;99.90
12386;DHT22;6257;57.634;18.310;2022-07-19T01:58:49;17.10;99.90
12386;DHT22;6257;57.634;18.310;2022-07-19T02:01:16;17.10;99.90
12386;DHT22;6257;57.634;18.310;2022-07-19T02:03:43;17.10;99.90
12386;DHT22;6257;57.634;18.310;2022-07-19T02:06:10;17.10;99.90
12386;DHT22;6257;57.634;18.310;2022-07-19T02:08:37;17.10;99.90
12386;DHT22;6257;57.634;18.310;2022-07-19T02:11:06;17.00;99.90
12386;DHT22;6257;57.634;18.310;2022-07-19T02:13:48;17.00;99.90
12386;DHT22;6257;57.634;18.310;2022-07-19T02:16:16;17.00;99.90
12386;DHT22;6257;57.634;18.310;2022-07-19T02:18:43;17.00;99.90
12386;DHT22;6257;57.634;18.310;2022-07-19T02:21:10;17.00;99.90
12386;DHT22;6257;57.634;18.310;2022-07-19T02:23:37;17.00;99.90
12386;DHT22;6257;57.634;18.310;2022-07-19T02:26:04;17.00;99.90
12386;DHT22;6257;57.634;18.310;2022-07-19T02:28:31;17.00;99.90
12386;DHT22;6257;57.634;18.310;2022-07-19T02:30:59;17.00;99.90
12386;DHT22;6257;57.634;18.310;2022-07-19T02:33:26;16.90;99.90
12386;DHT22;6257;57.634;18.310;2022-07-19T02:35:53;16.90;99.90
12386;DHT22;6257;57.634;18.310;2022-07-19T02:38:21;17.00;99.90
12386;DHT22;6257;57.634;18.310;2022-07-19T02:40:48;17.00;99.90
12386;DHT22;6257;57.634;18.310;2022-07-19T02:43:15;17.00;99.90
12386;DHT22;6257;57.634;18.310;2022-07-19T02:45:42;17.00;99.90
12386;DHT22;6257;57.634;18.310;2022-07-19T02:48:11;17.00;99.90
12386;DHT22;6257;57.634;18.310;2022-07-19T02:50:38;16.90;99.90
12386;DHT22;6257;57.634;18.310;2022-07-19T02:53:05;17.00;99.90
12386;DHT22;6257;57.634;18.310;2022-07-19T02:55:32;17.00;99.90
12386;DHT22;6257;57.634;18.310;2022-07-19T02:57:59;17.00;99.90
12386;DHT22;6257;57.634;18.310;2022-07-19T03:00:27;17.00;99.90
12386;DHT22;6257;57.634;18.310;2022-07-19T03:02:54;17.10;99.90
12386;DHT22;6257;57.634;18.310;2022-07-19T03:05:22;17.10;99.90
12386;DHT22;6257;57.634;18.310;2022-07-19T03:07:49;17.10;99.90
12386;DHT22;6257;57.634;18.310;2022-07-19T03:10:16;17.10;99.90
12386;DHT22;6257;57.634;18.310;2022-07-19T03:12:43;17.10;99.90
12386;DHT22;6257;57.634;18.310;2022-07-19T03:15:10;17.10;99.90
12386;DHT22;6257;57.634;18.310;2022-07-19T03:17:38;17.10;99.90
12386;DHT22;6257;57.634;18.310;2022-07-19T03:20:07;17.10;99.90
12386;DHT22;6257;57.634;18.310;2022-07-19T03:22:35;17.20;99.90
12386;DHT22;6257;57.634;18.310;2022-07-19T03:25:03;17.20;99.90
12386;DHT22;6257;57.634;18.310;2022-07-19T03:27:30;17.20;99.90
12386;DHT22;6257;57.634;18.310;2022-07-19T03:29:57;17.20;99.90
12386;DHT22;6257;57.634;18.310;2022-07-19T03:32:24;16.50;99.90
12386;DHT22;6257;57.634;18.310;2022-07-19T03:34:51;17.20;99.90
12386;DHT22;6257;57.634;18.310;2022-07-19T03:37:18;17.20;99.90
12386;DHT22;6257;57.634;18.310;2022-07-19T03:39:47;17.20;99.90
12386;DHT22;6257;57.634;18.310;2022-07-19T03:42:14;17.30;99.90
12386;DHT22;6257;57.634;18.310;2022-07-19T03:44:41;17.30;99.90
12386;DHT22;6257;57.634;18.310;2022-07-19T03:47:08;17.40;99.90
12386;DHT22;6257;57.634;18.310;2022-07-19T03:49:35;17.50;99.90
12386;DHT22;6257;57.634;18.310;2022-07-19T03:52:02;17.70;99.90
12386;DHT22;6257;57.634;18.310;2022-07-19T03:54:29;17.90;99.90
12386;DHT22;6257;57.634;18.310;2022-07-19T03:56:58;18.10;99.90
12386;DHT22;6257;57.634;18.310;2022-07-19T03:59:25;18.10;99.90
12386;DHT22;6257;57.634;18.310;2022-07-19T04:01:52;18.10;99.90
12386;DHT22;6257;57.634;18.310;2022-07-19T04:04:20;18.10;99.90
12386;DHT22;6257;57.634;18.310;2022-07-19T04:06:47;18.10;99.90
12386;DHT22;6257;57.634;18.310;2022-07-19T04:09:14;18.20;99.90
12386;DHT22;6257;57.634;18.310;2022-07-19T04:11:41;18.20;99.90
12386;DHT22;6257;57.634;18.310;2022-07-19T04:14:09;18.20;99.90
12386;DHT22;6257;57.634;18.310;2022-07-19T04:16:36;18.30;99.90
12386;DHT22;6257;57.634;18.310;2022-07-19T04:19:03;18.30;99.90
12386;DHT22;6257;57.634;18.310;2022-07-19T04:21:31;18.40;99.90
12386;DHT22;6257;57.634;18.310;2022-07-19T04:23:58;18.40;99.90
12386;DHT22;6257;57.634;18.310;2022-07-19T04:26:25;18.40;99.90
12386;DHT22;6257;57.634;18.310;2022-07-19T04:28:52;18.40;99.90
12386;DHT22;6257;57.634;18.310;2022-07-19T04:31:20;18.50;99.90
12386;DHT22;6257;57.634;18.310;2022-07-19T04:33:47;18.50;99.90
12386;DHT22;6257;57.634;18.310;2022-07-19T04:36:14;18.60;99.90
12386;DHT22;6257;57.634;18.310;2022-07-19T04:38:41;18.60;99.90
12386;DHT22;6257;57.634;18.310;2022-07-19T04:41:09;18.60;99.90
12386;DHT22;6257;57.634;18.310;2022-07-19T04:43:36;18.60;99.90
12386;DHT22;6257;57.634;18.310;2022-07-19T04:46:03;18.60;99.90
12386;DHT22;6257;57.634;18.310;2022-07-19T04:48:32;18.60;99.90
12386;DHT22;6257;57.634;18.310;2022-07-19T04:50:59;18.70;99.90
12386;DHT22;6257;57.634;18.310;2022-07-19T04:53:26;18.70;99.90
12386;DHT22;6257;57.634;18.310;2022-07-19T04:55:53;18.70;99.90
12386;DHT22;6257;57.634;18.310;2022-07-19T04:58:20;18.70;99.90
12386;DHT22;6257;57.634;18.310;2022-07-19T05:00:47;18.70;99.90
12386;DHT22;6257;57.634;18.310;2022-07-19T05:03:14;18.80;99.90
12386;DHT22;6257;57.634;18.310;2022-07-19T05:05:42;18.70;99.90
12386;DHT22;6257;57.634;18.310;2022-07-19T05:08:09;18.80;99.90
12386;DHT22;6257;57.634;18.310;2022-07-19T05:10:37;18.70;99.90
12386;DHT22;6257;57.634;18.310;2022-07-19T05:13:04;18.60;99.90
12386;DHT22;6257;57.634;18.310;2022-07-19T05:15:31;18.60;99.90
12386;DHT22;6257;57.634;18.310;2022-07-19T05:17:58;18.60;99.90
12386;DHT22;6257;57.634;18.310;2022-07-19T05:20:25;18.60;99.90
12386;DHT22;6257;57.634;18.310;2022-07-19T05:22:54;18.60;99.90
12386;DHT22;6257;57.634;18.310;2022-07-19T05:25:21;18.60;99.90
12386;DHT22;6257;57.634;18.310;2022-07-19T05:27:48;18.70;99.90
12386;DHT22;6257;57.634;18.310;2022-07-19T05:30:15;18.70;99.90
12386;DHT22;6257;57.634;18.310;2022-07-19T05:32:42;18.70;99.90
12386;DHT22;6257;57.634;18.310;2022-07-19T05:35:10;18.70;99.90
12386;DHT22;6257;57.634;18.310;2022-07-19T05:37:37;18.70;99.90
12386;DHT22;6257;57.634;18.310;2022-07-19T05:40:06;18.70;99.90
12386;DHT22;6257;57.634;18.310;2022-07-19T05:42:34;18.70;99.90
12386;DHT22;6257;57.634;18.310;2022-07-19T05:45:01;18.80;99.90
12386;DHT22;6257;57.634;18.310;2022-07-19T05:47:28;18.80;99.90
12386;DHT22;6257;57.634;18.310;2022-07-19T05:49:55;18.90;99.90
12386;DHT22;6257;57.634;18.310;2022-07-19T05:52:24;18.80;99.90
12386;DHT22;6257;57.634;18.310;2022-07-19T05:54:51;18.90;99.90
12386;DHT22;6257;57.634;18.310;2022-07-19T05:57:20;18.90;99.90
12386;DHT22;6257;57.634;18.310;2022-07-19T05:59:47;18.90;99.90
12386;DHT22;6257;57.634;18.310;2022-07-19T06:02:14;19.00;99.90
12386;DHT22;6257;57.634;18.310;2022-07-19T06:04:42;18.90;99.90
12386;DHT22;6257;57.634;18.310;2022-07-19T06:07:09;18.90;99.90
12386;DHT22;6257;57.634;18.310;2022-07-19T06:09:36;18.80;99.90
12386;DHT22;6257;57.634;18.310;2022-07-19T06:12:03;19.00;99.90
12386;DHT22;6257;57.634;18.310;2022-07-19T06:14:32;19.00;99.90
12386;DHT22;6257;57.634;18.310;2022-07-19T06:16:59;19.00;99.90
12386;DHT22;6257;57.634;18.310;2022-07-19T06:19:26;19.10;99.90
12386;DHT22;6257;57.634;18.310;2022-07-19T06:21:53;19.20;99.90
12386;DHT22;6257;57.634;18.310;2022-07-19T06:24:21;19.30;99.90
12386;DHT22;6257;57.634;18.310;2022-07-19T06:26:48;19.40;99.90
12386;DHT22;6257;57.634;18.310;2022-07-19T06:29:15;19.30;99.90
12386;DHT22;6257;57.634;18.310;2022-07-19T06:31:43;19.40;99.90
12386;DHT22;6257;57.634;18.310;2022-07-19T06:34:10;19.40;99.90
12386;DHT22;6257;57.634;18.310;2022-07-19T06:36:37;19.40;99.90
12386;DHT22;6257;57.634;18.310;2022-07-19T06:39:05;19.30;99.90
12386;DHT22;6257;57.634;18.310;2022-07-19T06:41:32;19.40;99.90
12386;DHT22;6257;57.634;18.310;2022-07-19T06:43:59;19.40;99.90
12386;DHT22;6257;57.634;18.310;2022-07-19T06:46:26;19.40;99.90
12386;DHT22;6257;57.634;18.310;2022-07-19T06:48:54;19.40;99.90
12386;DHT22;6257;57.634;18.310;2022-07-19T06:51:21;19.40;99.90
12386;DHT22;6257;57.634;18.310;2022-07-19T06:53:49;19.40;99.90
12386;DHT22;6257;57.634;18.310;2022-07-19T06:56:16;19.50;99.90
12386;DHT22;6257;57.634;18.310;2022-07-19T06:58:43;19.60;99.90
12386;DHT22;6257;57.634;18.310;2022-07-19T07:01:10;19.70;99.90
12386;DHT22;6257;57.634;18.310;2022-07-19T07:03:37;19.80;99.90
12386;DHT22;6257;57.634;18.310;2022-07-19T07:06:06;19.80;99.90
12386;DHT22;6257;57.634;18.310;2022-07-19T07:08:33;19.70;99.90
12386;DHT22;6257;57.634;18.310;2022-07-19T07:11:00;19.70;99.90
12386;DHT22;6257;57.634;18.310;2022-07-19T07:13:27;19.80;99.90
12386;DHT22;6257;57.634;18.310;2022-07-19T07:15:54;19.90;99.90
12386;DHT22;6257;57.634;18.310;2022-07-19T07:18:21;19.90;99.90
12386;DHT22;6257;57.634;18.310;2022-07-19T07:20:49;20.00;99.90
12386;DHT22;6257;57.634;18.310;2022-07-19T07:23:17;20.30;99.90
12386;DHT22;6257;57.634;18.310;2022-07-19T07:25:45;20.40;99.90
12386;DHT22;6257;57.634;18.310;2022-07-19T07:28:12;20.40;99.90
12386;DHT22;6257;57.634;18.310;2022-07-19T07:30:39;20.50;99.90
12386;DHT22;6257;57.634;18.310;2022-07-19T07:33:06;20.50;99.90
12386;DHT22;6257;57.634;18.310;2022-07-19T07:35:33;20.70;99.90
12386;DHT22;6257;57.634;18.310;2022-07-19T07:38:00;20.70;99.90
12386;DHT22;6257;57.634;18.310;2022-07-19T07:40:28;20.80;99.90
12386;DHT22;6257;57.634;18.310;2022-07-19T07:42:55;20.80;99.90
12386;DHT22;6257;57.634;18.310;2022-07-19T07:45:23;20.80;99.90
12386;DHT22;6257;57.634;18.310;2022-07-19T07:47:51;21.00;99.90
12386;DHT22;6257;57.634;18.310;2022-07-19T07:50:18;21.10;99.90
12386;DHT22;6257;57.634;18.310;2022-07-19T07:52:45;21.20;99.90
12386;DHT22;6257;57.634;18.310;2022-07-19T07:55:12;21.30;99.90
12386;DHT22;6257;57.634;18.310;2022-07-19T07:57:40;21.40;99.90
12386;DHT22;6257;57.634;18.310;2022-07-19T08:00:09;21.50;99.90
12386;DHT22;6257;57.634;18.310;2022-07-19T08:02:39;21.60;99.90
12386;DHT22;6257;57.634;18.310;2022-07-19T08:05:07;21.60;99.90
12386;DHT22;6257;57.634;18.310;2022-07-19T08:07:34;21.90;99.90
12386;DHT22;6257;57.634;18.310;2022-07-19T08:10:01;22.40;99.90
12386;DHT22;6257;57.634;18.310;2022-07-19T08:12:29;22.70;99.90
12386;DHT22;6257;57.634;18.310;2022-07-19T08:14:57;23.00;99.90
12386;DHT22;6257;57.634;18.310;2022-07-19T08:17:24;23.30;99.90
12386;DHT22;6257;57.634;18.310;2022-07-19T08:19:51;23.60;99.90
12386;DHT22;6257;57.634;18.310;2022-07-19T08:22:18;23.50;99.90
12386;DHT22;6257;57.634;18.310;2022-07-19T08:24:45;23.50;99.90
12386;DHT22;6257;57.634;18.310;2022-07-19T08:27:12;23.50;99.90
12386;DHT22;6257;57.634;18.310;2022-07-19T08:29:39;23.80;99.90
12386;DHT22;6257;57.634;18.310;2022-07-19T08:32:08;23.80;99.90
12386;DHT22;6257;57.634;18.310;2022-07-19T08:34:35;23.80;99.90
12386;DHT22;6257;57.634;18.310;2022-07-19T08:37:02;23.80;99.90
12386;DHT22;6257;57.634;18.310;2022-07-19T08:39:29;23.90;99.90
12386;DHT22;6257;57.634;18.310;2022-07-19T08:41:56;24.00;99.90
12386;DHT22;6257;57.634;18.310;2022-07-19T08:44:24;23.60;99.90
12386;DHT22;6257;57.634;18.310;2022-07-19T08:46:52;23.40;99.90
12386;DHT22;6257;57.634;18.310;2022-07-19T08:49:21;23.40;99.90
12386;DHT22;6257;57.634;18.310;2022-07-19T08:51:48;23.30;99.90
12386;DHT22;6257;57.634;18.310;2022-07-19T08:54:15;23.20;99.90
12386;DHT22;6257;57.634;18.310;2022-07-19T08:56:42;23.10;99.90
12386;DHT22;6257;57.634;18.310;2022-07-19T08:59:27;22.90;99.90
12386;DHT22;6257;57.634;18.310;2022-07-19T09:01:56;22.50;99.90
12386;DHT22;6257;57.634;18.310;2022-07-19T09:04:25;22.20;99.90
12386;DHT22;6257;57.634;18.310;2022-07-19T09:06:55;22.20;99.90
12386;DHT22;6257;57.634;18.310;2022-07-19T09:09:24;22.00;99.90
12386;DHT22;6257;57.634;18.310;2022-07-19T09:11:53;21.80;99.90
12386;DHT22;6257;57.634;18.310;2022-07-19T09:14:22;21.60;99.90
12386;DHT22;6257;57.634;18.310;2022-07-19T09:17:01;21.40;99.90
12386;DHT22;6257;57.634;18.310;2022-07-19T09:19:31;21.40;99.90
12386;DHT22;6257;57.634;18.310;2022-07-19T09:22:01;21.50;99.90
12386;DHT22;6257;57.634;18.310;2022-07-19T09:24:30;21.50;99.90
12386;DHT22;6257;57.634;18.310;2022-07-19T09:27:00;21.70;99.90
12386;DHT22;6257;57.634;18.310;2022-07-19T09:29:27;21.60;99.90
12386;DHT22;6257;57.634;18.310;2022-07-19T09:31:59;21.60;99.90
12386;DHT22;6257;57.634;18.310;2022-07-19T09:34:27;21.60;99.90
12386;DHT22;6257;57.634;18.310;2022-07-19T09:37:12;21.50;99.90
12386;DHT22;6257;57.634;18.310;2022-07-19T09:39:40;21.50;99.90
12386;DHT22;6257;57.634;18.310;2022-07-19T09:42:10;21.50;99.90
12386;DHT22;6257;57.634;18.310;2022-07-19T09:44:38;21.40;99.90
12386;DHT22;6257;57.634;18.310;2022-07-19T09:47:05;21.40;99.90
12386;DHT22;6257;57.634;18.310;2022-07-19T09:49:32;21.50;99.90
12386;DHT22;6257;57.634;18.310;2022-07-19T09:51:59;21.50;99.90
12386;DHT22;6257;57.634;18.310;2022-07-19T09:54:29;21.60;99.90
12386;DHT22;6257;57.634;18.310;2022-07-19T09:56:57;21.50;99.90
12386;DHT22;6257;57.634;18.310;2022-07-19T09:59:25;21.50;99.90
12386;DHT22;6257;57.634;18.310;2022-07-19T10:01:53;21.40;99.90
12386;DHT22;6257;57.634;18.310;2022-07-19T10:04:22;21.50;99.90
12386;DHT22;6257;57.634;18.310;2022-07-19T10:06:51;21.30;99.90
12386;DHT22;6257;57.634;18.310;2022-07-19T10:09:20;21.20;99.90
12386;DHT22;6257;57.634;18.310;2022-07-19T10:11:49;21.30;99.90
12386;DHT22;6257;57.634;18.310;2022-07-19T10:14:17;21.30;99.90
12386;DHT22;6257;57.634;18.310;2022-07-19T10:16:58;21.40;99.90
12386;DHT22;6257;57.634;18.310;2022-07-19T10:19:33;21.20;99.90
12386;DHT22;6257;57.634;18.310;2022-07-19T10:22:02;21.20;99.90
12386;DHT22;6257;57.634;18.310;2022-07-19T10:24:44;21.10;99.90
12386;DHT22;6257;57.634;18.310;2022-07-19T10:27:15;21.00;99.90
12386;DHT22;6257;57.634;18.310;2022-07-19T10:29:42;21.00;99.90
12386;DHT22;6257;57.634;18.310;2022-07-19T10:32:11;21.00;99.90
12386;DHT22;6257;57.634;18.310;2022-07-19T10:34:39;21.00;99.90
12386;DHT22;6257;57.634;18.310;2022-07-19T10:37:07;21.00;99.90
12386;DHT22;6257;57.634;18.310;2022-07-19T10:39:35;20.90;99.90
12386;DHT22;6257;57.634;18.310;2022-07-19T10:42:08;20.90;99.90
12386;DHT22;6257;57.634;18.310;2022-07-19T10:45:09;20.80;99.90
12386;DHT22;6257;57.634;18.310;2022-07-19T10:48:04;20.80;99.90
12386;DHT22;6257;57.634;18.310;2022-07-19T10:50:52;20.70;99.90
12386;DHT22;6257;57.634;18.310;2022-07-19T10:56:22;20.70;99.90
12386;DHT22;6257;57.634;18.310;2022-07-19T10:58:51;20.70;99.90
12386;DHT22;6257;57.634;18.310;2022-07-19T11:01:21;20.70;99.90
12386;DHT22;6257;57.634;18.310;2022-07-19T11:03:49;20.70;99.90
12386;DHT22;6257;57.634;18.310;2022-07-19T11:06:22;20.60;99.90
12386;DHT22;6257;57.634;18.310;2022-07-19T11:08:53;20.70;99.90
12386;DHT22;6257;57.634;18.310;2022-07-19T11:11:20;19.60;99.90
12386;DHT22;6257;57.634;18.310;2022-07-19T11:13:49;20.80;99.90
12386;DHT22;6257;57.634;18.310;2022-07-19T11:16:18;20.80;99.90
12386;DHT22;6257;57.634;18.310;2022-07-19T11:18:46;20.80;99.90
12386;DHT22;6257;57.634;18.310;2022-07-19T11:21:14;20.80;99.90
12386;DHT22;6257;57.634;18.310;2022-07-19T11:23:42;20.90;99.90
12386;DHT22;6257;57.634;18.310;2022-07-19T11:26:11;21.00;99.90
12386;DHT22;6257;57.634;18.310;2022-07-19T11:28:41;21.00;99.90
12386;DHT22;6257;57.634;18.310;2022-07-19T11:31:13;20.90;99.90
12386;DHT22;6257;57.634;18.310;2022-07-19T11:33:44;21.00;99.90
12386;DHT22;6257;57.634;18.310;2022-07-19T11:36:12;21.10;99.90
12386;DHT22;6257;57.634;18.310;2022-07-19T11:38:42;21.20;99.90
12386;DHT22;6257;57.634;18.310;2022-07-19T11:41:13;21.10;99.90
12386;DHT22;6257;57.634;18.310;2022-07-19T11:43:42;21.00;99.90
12386;DHT22;6257;57.634;18.310;2022-07-19T11:46:09;21.10;99.90
12386;DHT22;6257;57.634;18.310;2022-07-19T11:48:36;21.10;99.90
12386;DHT22;6257;57.634;18.310;2022-07-19T11:51:08;21.10;99.90
12386;DHT22;6257;57.634;18.310;2022-07-19T11:53:37;21.10;99.90
12386;DHT22;6257;57.634;18.310;2022-07-19T11:56:06;21.10;99.90
12386;DHT22;6257;57.634;18.310;2022-07-19T11:58:43;21.10;99.90
12386;DHT22;6257;57.634;18.310;2022-07-19T12:01:10;21.10;99.90
12386;DHT22;6257;57.634;18.310;2022-07-19T12:03:38;21.20;99.90
12386;DHT22;6257;57.634;18.310;2022-07-19T12:06:08;21.30;99.90
12386;DHT22;6257;57.634;18.310;2022-07-19T12:08:39;21.40;99.90
12386;DHT22;6257;57.634;18.310;2022-07-19T12:11:21;21.40;99.90
12386;DHT22;6257;57.634;18.310;2022-07-19T12:13:50;21.40;99.90
12386;DHT22;6257;57.634;18.310;2022-07-19T12:16:18;21.30;99.90
12386;DHT22;6257;57.634;18.310;2022-07-19T12:18:48;21.20;99.90
12386;DHT22;6257;57.634;18.310;2022-07-19T12:21:18;21.20;99.90
12386;DHT22;6257;57.634;18.310;2022-07-19T12:24:07;21.30;99.90
12386;DHT22;6257;57.634;18.310;2022-07-19T12:26:35;21.30;99.90
12386;DHT22;6257;57.634;18.310;2022-07-19T12:29:16;21.30;99.90
12386;DHT22;6257;57.634;18.310;2022-07-19T12:31:44;21.30;99.90
12386;DHT22;6257;57.634;18.310;2022-07-19T12:34:11;21.30;99.90
12386;DHT22;6257;57.634;18.310;2022-07-19T12:36:40;21.30;99.90
12386;DHT22;6257;57.634;18.310;2022-07-19T12:39:18;21.40;99.90
12386;DHT22;6257;57.634;18.310;2022-07-19T12:41:57;21.30;99.90
12386;DHT22;6257;57.634;18.310;2022-07-19T12:44:24;21.20;99.90
12386;DHT22;6257;57.634;18.310;2022-07-19T12:46:52;21.20;99.90
12386;DHT22;6257;57.634;18.310;2022-07-19T12:49:19;21.10;99.90
12386;DHT22;6257;57.634;18.310;2022-07-19T12:51:47;21.20;99.90
12386;DHT22;6257;57.634;18.310;2022-07-19T12:54:15;21.30;99.90
12386;DHT22;6257;57.634;18.310;2022-07-19T12:56:42;21.40;99.90
12386;DHT22;6257;57.634;18.310;2022-07-19T12:59:09;21.40;99.90
12386;DHT22;6257;57.634;18.310;2022-07-19T13:01:53;21.30;99.90
12386;DHT22;6257;57.634;18.310;2022-07-19T13:04:20;21.40;99.90
12386;DHT22;6257;57.634;18.310;2022-07-19T13:06:49;21.40;99.90
12386;DHT22;6257;57.634;18.310;2022-07-19T13:09:16;21.40;99.90
12386;DHT22;6257;57.634;18.310;2022-07-19T13:11:44;21.50;99.90
12386;DHT22;6257;57.634;18.310;2022-07-19T13:14:11;21.60;99.90
12386;DHT22;6257;57.634;18.310;2022-07-19T13:16:38;21.60;99.90
12386;DHT22;6257;57.634;18.310;2022-07-19T13:19:05;21.70;99.90
12386;DHT22;6257;57.634;18.310;2022-07-19T13:21:33;21.80;99.90
12386;DHT22;6257;57.634;18.310;2022-07-19T13:24:01;21.80;99.90
12386;DHT22;6257;57.634;18.310;2022-07-19T13:26:29;21.90;99.90
12386;DHT22;6257;57.634;18.310;2022-07-19T13:28:56;21.90;99.90
12386;DHT22;6257;57.634;18.310;2022-07-19T13:31:23;22.00;99.90
12386;DHT22;6257;57.634;18.310;2022-07-19T13:33:50;22.00;99.90
12386;DHT22;6257;57.634;18.310;2022-07-19T13:36:17;22.10;99.90
12386;DHT22;6257;57.634;18.310;2022-07-19T13:38:44;22.20;99.90
12386;DHT22;6257;57.634;18.310;2022-07-19T13:41:15;22.30;99.90
12386;DHT22;6257;57.634;18.310;2022-07-19T13:43:43;22.40;99.90
12386;DHT22;6257;57.634;18.310;2022-07-19T13:46:10;22.40;99.90
12386;DHT22;6257;57.634;18.310;2022-07-19T13:48:37;22.50;99.90
12386;DHT22;6257;57.634;18.310;2022-07-19T13:51:06;22.60;99.90
12386;DHT22;6257;57.634;18.310;2022-07-19T13:53:34;22.70;99.90
12386;DHT22;6257;57.634;18.310;2022-07-19T13:56:02;22.80;99.90
12386;DHT22;6257;57.634;18.310;2022-07-19T13:58:30;22.90;99.90
12386;DHT22;6257;57.634;18.310;2022-07-19T14:00:58;22.90;99.90
12386;DHT22;6257;57.634;18.310;2022-07-19T14:03:25;23.00;99.90
12386;DHT22;6257;57.634;18.310;2022-07-19T14:05:52;23.00;99.90
12386;DHT22;6257;57.634;18.310;2022-07-19T14:08:19;23.10;99.90
12386;DHT22;6257;57.634;18.310;2022-07-19T14:10:46;23.30;99.90
12386;DHT22;6257;57.634;18.310;2022-07-19T14:13:13;23.40;99.90
12386;DHT22;6257;57.634;18.310;2022-07-19T14:15:42;23.50;99.90
12386;DHT22;6257;57.634;18.310;2022-07-19T14:18:10;23.60;99.90
12386;DHT22;6257;57.634;18.310;2022-07-19T14:20:40;23.60;99.90
12386;DHT22;6257;57.634;18.310;2022-07-19T14:23:08;23.70;99.90
12386;DHT22;6257;57.634;18.310;2022-07-19T14:25:35;23.80;99.90
12386;DHT22;6257;57.634;18.310;2022-07-19T14:28:02;23.80;99.90
12386;DHT22;6257;57.634;18.310;2022-07-19T14:30:29;23.90;99.90
12386;DHT22;6257;57.634;18.310;2022-07-19T14:32:58;23.90;99.90
12386;DHT22;6257;57.634;18.310;2022-07-19T14:35:25;23.90;99.90
12386;DHT22;6257;57.634;18.310;2022-07-19T14:37:52;23.80;99.90
12386;DHT22;6257;57.634;18.310;2022-07-19T14:40:19;23.90;99.90
12386;DHT22;6257;57.634;18.310;2022-07-19T14:42:47;24.00;99.90
12386;DHT22;6257;57.634;18.310;2022-07-19T14:45:14;24.00;99.90
12386;DHT22;6257;57.634;18.310;2022-07-19T14:47:41;24.10;99.90
12386;DHT22;6257;57.634;18.310;2022-07-19T14:50:10;24.10;99.90
12386;DHT22;6257;57.634;18.310;2022-07-19T14:52:38;24.10;99.90
12386;DHT22;6257;57.634;18.310;2022-07-19T14:55:06;24.10;99.90
12386;DHT22;6257;57.634;18.310;2022-07-19T14:57:34;24.20;99.90
12386;DHT22;6257;57.634;18.310;2022-07-19T15:00:01;24.20;99.90
12386;DHT22;6257;57.634;18.310;2022-07-19T15:02:28;24.20;99.90
12386;DHT22;6257;57.634;18.310;2022-07-19T15:04:55;24.20;99.90
12386;DHT22;6257;57.634;18.310;2022-07-19T15:07:25;24.20;99.90
12386;DHT22;6257;57.634;18.310;2022-07-19T15:09:53;24.20;99.90
12386;DHT22;6257;57.634;18.310;2022-07-19T15:12:20;24.10;99.90
12386;DHT22;6257;57.634;18.310;2022-07-19T15:14:48;24.10;99.90
12386;DHT22;6257;57.634;18.310;2022-07-19T15:17:16;24.20;99.90
12386;DHT22;6257;57.634;18.310;2022-07-19T15:19:44;24.20;99.90
12386;DHT22;6257;57.634;18.310;2022-07-19T15:22:11;24.30;99.90
12386;DHT22;6257;57.634;18.310;2022-07-19T15:24:40;24.30;99.90
12386;DHT22;6257;57.634;18.310;2022-07-19T15:27:07;24.30;99.90
12386;DHT22;6257;57.634;18.310;2022-07-19T15:29:34;24.20;99.90
12386;DHT22;6257;57.634;18.310;2022-07-19T15:32:01;24.20;99.90
12386;DHT22;6257;57.634;18.310;2022-07-19T15:34:28;24.20;99.90
12386;DHT22;6257;57.634;18.310;2022-07-19T15:36:55;24.10;99.90
12386;DHT22;6257;57.634;18.310;2022-07-19T15:39:22;24.10;99.90